sensor_id;sensor_type;location;lat;lon;timestamp;temperature;humidity
45115;DHT22;30877;43.706;10.780;2022-08-19T12:36:01;26.00;96.70
45115;DHT22;30877;43.706;10.780;2022-08-19T12:38:30;26.70;96.70
45115;DHT22;30877;43.706;10.780;2022-08-19T12:40:59;26.90;96.70
45115;DHT22;30877;43.706;10.780;2022-08-19T12:43:27;26.80;96.70
45115;DHT22;30877;43.706;10.780;2022-08-19T12:45:57;27.00;96.70
45115;DHT22;30877;43.706;10.780;2022-08-19T13:12:07;27.50;96.70
45115;DHT22;30877;43.706;10.780;2022-08-19T13:14:42;27.90;96.70
45115;DHT22;30877;43.706;10.780;2022-08-19T13:17:13;27.90;96.70
45115;DHT22;30877;43.706;10.780;2022-08-19T13:19:43;27.90;96.70
45115;DHT22;30877;43.706;10.780;2022-08-19T13:22:11;28.00;96.70
45115;DHT22;30877;43.706;10.780;2022-08-19T13:24:41;27.90;96.70
45115;DHT22;30877;43.706;10.780;2022-08-19T13:27:21;28.10;96.70
45115;DHT22;30877;43.706;10.780;2022-08-19T13:29:50;28.10;96.70
45115;DHT22;30877;43.706;10.780;2022-08-19T13:32:36;28.00;96.70
45115;DHT22;30877;43.706;10.780;2022-08-19T13:35:23;28.10;96.70
45115;DHT22;30877;43.706;10.780;2022-08-19T13:37:51;28.20;96.70
45115;DHT22;30877;43.706;10.780;2022-08-19T13:40:22;28.40;96.70
45115;DHT22;30877;43.706;10.780;2022-08-19T13:42:54;28.50;96.70
45115;DHT22;30877;43.706;10.780;2022-08-19T13:45:24;28.70;96.70
45115;DHT22;30877;43.706;10.780;2022-08-19T13:47:53;28.90;96.70
45115;DHT22;30877;43.706;10.780;2022-08-19T13:50:27;29.10;96.70
45115;DHT22;30877;43.706;10.780;2022-08-19T13:53:11;29.00;96.70
45115;DHT22;30877;43.706;10.780;2022-08-19T13:55:39;28.60;96.70
45115;DHT22;30877;43.706;10.780;2022-08-19T13:58:10;28.30;96.70
45115;DHT22;30877;43.706;10.780;2022-08-19T14:00:43;28.00;96.70
45115;DHT22;30877;43.706;10.780;2022-08-19T14:03:11;27.90;96.70
45115;DHT22;30877;43.706;10.780;2022-08-19T14:05:40;27.70;96.70
45115;DHT22;30877;43.706;10.780;2022-08-19T14:08:08;27.50;96.70
45115;DHT22;30877;43.706;10.780;2022-08-19T14:10:36;27.50;96.70
45115;DHT22;30877;43.706;10.780;2022-08-19T14:13:05;27.30;96.70
45115;DHT22;30877;43.706;10.780;2022-08-19T14:15:34;26.90;96.70
45115;DHT22;30877;43.706;10.780;2022-08-19T14:18:03;26.80;96.70
45115;DHT22;30877;43.706;10.780;2022-08-19T14:20:37;26.70;96.70
45115;DHT22;30877;43.706;10.780;2022-08-19T14:23:05;26.80;96.70
45115;DHT22;30877;43.706;10.780;2022-08-19T14:25:33;26.80;96.70
45115;DHT22;30877;43.706;10.780;2022-08-19T14:31:27;27.00;96.70
45115;DHT22;30877;43.706;10.780;2022-08-19T14:33:57;27.20;96.70
45115;DHT22;30877;43.706;10.780;2022-08-19T14:36:25;27.20;96.70
45115;DHT22;30877;43.706;10.780;2022-08-19T14:38:54;27.40;96.70
45115;DHT22;30877;43.706;10.780;2022-08-19T14:41:23;27.30;96.70
45115;DHT22;30877;43.706;10.780;2022-08-19T14:43:52;27.70;96.70
45115;DHT22;30877;43.706;10.780;2022-08-19T14:46:23;27.70;96.70
45115;DHT22;30877;43.706;10.780;2022-08-19T14:48:56;27.60;96.70
45115;DHT22;30877;43.706;10.780;2022-08-19T15:05:48;27.40;96.70
45115;DHT22;30877;43.706;10.780;2022-08-19T15:08:17;28.80;96.70
45115;DHT22;30877;43.706;10.780;2022-08-19T15:10:45;30.10;96.70
45115;DHT22;30877;43.706;10.780;2022-08-19T15:13:15;31.30;96.70
45115;DHT22;30877;43.706;10.780;2022-08-19T15:15:43;32.10;96.70
45115;DHT22;30877;43.706;10.780;2022-08-19T15:18:13;32.50;96.70
45115;DHT22;30877;43.706;10.780;2022-08-19T15:20:41;33.00;96.70
45115;DHT22;30877;43.706;10.780;2022-08-19T15:23:36;33.60;96.70
45115;DHT22;30877;43.706;10.780;2022-08-19T15:26:05;34.20;96.70
45115;DHT22;30877;43.706;10.780;2022-08-19T15:28:42;34.60;96.70
45115;DHT22;30877;43.706;10.780;2022-08-19T15:31:11;34.70;96.70
45115;DHT22;30877;43.706;10.780;2022-08-19T15:33:55;34.70;96.70
45115;DHT22;30877;43.706;10.780;2022-08-19T15:36:26;34.50;96.70
45115;DHT22;30877;43.706;10.780;2022-08-19T15:38:55;34.10;96.70
45115;DHT22;30877;43.706;10.780;2022-08-19T15:41:26;33.50;96.70
45115;DHT22;30877;43.706;10.780;2022-08-19T15:43:56;32.40;96.70
45115;DHT22;30877;43.706;10.780;2022-08-19T15:46:28;32.00;96.70
45115;DHT22;30877;43.706;10.780;2022-08-19T15:48:57;31.20;96.70
45115;DHT22;30877;43.706;10.780;2022-08-19T15:51:29;30.40;96.70
45115;DHT22;30877;43.706;10.780;2022-08-19T15:53:59;30.10;96.70
45115;DHT22;30877;43.706;10.780;2022-08-19T15:56:27;30.00;96.70
45115;DHT22;30877;43.706;10.780;2022-08-19T15:59:25;30.20;96.70
45115;DHT22;30877;43.706;10.780;2022-08-19T16:02:14;30.10;96.70
45115;DHT22;30877;43.706;10.780;2022-08-19T16:05:05;30.10;96.70
45115;DHT22;30877;43.706;10.780;2022-08-19T16:07:52;31.40;96.70
45115;DHT22;30877;43.706;10.780;2022-08-19T16:10:22;30.90;96.70
45115;DHT22;30877;43.706;10.780;2022-08-19T16:12:54;31.60;96.70
45115;DHT22;30877;43.706;10.780;2022-08-19T16:15:23;31.70;96.70
45115;DHT22;30877;43.706;10.780;2022-08-19T16:17:52;30.70;96.70
45115;DHT22;30877;43.706;10.780;2022-08-19T16:20:24;29.90;96.70
45115;DHT22;30877;43.706;10.780;2022-08-19T16:22:54;29.40;96.70
45115;DHT22;30877;43.706;10.780;2022-08-19T16:25:26;29.00;96.70
45115;DHT22;30877;43.706;10.780;2022-08-19T16:27:57;28.60;96.70
45115;DHT22;30877;43.706;10.780;2022-08-19T16:30:36;28.30;96.70
45115;DHT22;30877;43.706;10.780;2022-08-19T16:33:05;28.10;96.70
45115;DHT22;30877;43.706;10.780;2022-08-19T16:35:34;28.00;96.70
45115;DHT22;30877;43.706;10.780;2022-08-19T16:38:02;28.00;96.70
45115;DHT22;30877;43.706;10.780;2022-08-19T16:40:32;28.80;96.70
45115;DHT22;30877;43.706;10.780;2022-08-19T16:43:00;28.80;96.70
45115;DHT22;30877;43.706;10.780;2022-08-19T16:45:29;29.30;96.70
45115;DHT22;30877;43.706;10.780;2022-08-19T16:47:58;28.90;96.70
45115;DHT22;30877;43.706;10.780;2022-08-19T16:50:26;30.00;96.70
45115;DHT22;30877;43.706;10.780;2022-08-19T16:53:14;29.80;96.70
45115;DHT22;30877;43.706;10.780;2022-08-19T16:55:45;29.10;96.70
45115;DHT22;30877;43.706;10.780;2022-08-19T16:58:17;28.80;96.70
45115;DHT22;30877;43.706;10.780;2022-08-19T17:00:46;28.50;96.70
45115;DHT22;30877;43.706;10.780;2022-08-19T17:03:16;28.30;96.70
45115;DHT22;30877;43.706;10.780;2022-08-19T17:05:45;28.90;96.70
45115;DHT22;30877;43.706;10.780;2022-08-19T17:08:14;28.40;96.70
45115;DHT22;30877;43.706;10.780;2022-08-19T17:10:47;27.80;96.70
45115;DHT22;30877;43.706;10.780;2022-08-19T17:13:36;27.50;96.70
45115;DHT22;30877;43.706;10.780;2022-08-19T17:16:05;27.20;96.70
45115;DHT22;30877;43.706;10.780;2022-08-19T17:18:33;27.00;96.70
45115;DHT22;30877;43.706;10.780;2022-08-19T17:21:01;26.80;96.70
45115;DHT22;30877;43.706;10.780;2022-08-19T17:23:29;26.70;96.70
45115;DHT22;30877;43.706;10.780;2022-08-19T17:26:12;26.70;96.70
45115;DHT22;30877;43.706;10.780;2022-08-19T17:28:46;26.60;96.70
45115;DHT22;30877;43.706;10.780;2022-08-19T17:31:18;26.50;96.70
45115;DHT22;30877;43.706;10.780;2022-08-19T17:33:46;26.50;96.70
45115;DHT22;30877;43.706;10.780;2022-08-19T17:36:15;26.50;96.70
45115;DHT22;30877;43.706;10.780;2022-08-19T17:38:44;26.40;96.70
45115;DHT22;30877;43.706;10.780;2022-08-19T17:41:14;26.40;96.70
45115;DHT22;30877;43.706;10.780;2022-08-19T17:43:42;26.40;96.70
45115;DHT22;30877;43.706;10.780;2022-08-19T17:46:12;26.30;96.70
45115;DHT22;30877;43.706;10.780;2022-08-19T17:48:47;26.30;96.70
45115;DHT22;30877;43.706;10.780;2022-08-19T17:51:38;26.30;96.70
45115;DHT22;30877;43.706;10.780;2022-08-19T17:54:10;26.30;96.70
45115;DHT22;30877;43.706;10.780;2022-08-19T17:56:40;26.30;96.70
45115;DHT22;30877;43.706;10.780;2022-08-19T17:59:09;26.10;96.70
45115;DHT22;30877;43.706;10.780;2022-08-19T18:01:42;26.00;96.70
45115;DHT22;30877;43.706;10.780;2022-08-19T18:04:21;26.00;96.70
45115;DHT22;30877;43.706;10.780;2022-08-19T18:06:50;26.00;96.70
45115;DHT22;30877;43.706;10.780;2022-08-19T18:09:23;26.00;96.70
45115;DHT22;30877;43.706;10.780;2022-08-19T18:11:55;26.10;96.70
45115;DHT22;30877;43.706;10.780;2022-08-19T18:14:25;26.00;96.70
45115;DHT22;30877;43.706;10.780;2022-08-19T18:17:02;26.00;96.70
45115;DHT22;30877;43.706;10.780;2022-08-19T18:19:32;25.90;96.70
45115;DHT22;30877;43.706;10.780;2022-08-19T18:22:11;25.90;96.70
45115;DHT22;30877;43.706;10.780;2022-08-19T18:24:39;25.90;96.70
45115;DHT22;30877;43.706;10.780;2022-08-19T18:27:09;25.80;96.70
45115;DHT22;30877;43.706;10.780;2022-08-19T18:29:38;25.70;96.70
45115;DHT22;30877;43.706;10.780;2022-08-19T18:32:06;25.80;96.70
45115;DHT22;30877;43.706;10.780;2022-08-19T18:34:50;25.60;96.70
45115;DHT22;30877;43.706;10.780;2022-08-19T18:37:19;25.60;96.70
45115;DHT22;30877;43.706;10.780;2022-08-19T18:39:47;25.60;96.70
45115;DHT22;30877;43.706;10.780;2022-08-19T18:42:41;25.60;96.70
45115;DHT22;30877;43.706;10.780;2022-08-19T18:45:29;25.50;96.70
45115;DHT22;30877;43.706;10.780;2022-08-19T18:48:16;25.50;96.70
45115;DHT22;30877;43.706;10.780;2022-08-19T18:51:02;25.30;96.70
45115;DHT22;30877;43.706;10.780;2022-08-19T18:53:36;25.30;96.70
45115;DHT22;30877;43.706;10.780;2022-08-19T18:56:05;25.20;96.70
45115;DHT22;30877;43.706;10.780;2022-08-19T18:58:37;25.20;96.70
45115;DHT22;30877;43.706;10.780;2022-08-19T19:01:08;25.10;96.70
45115;DHT22;30877;43.706;10.780;2022-08-19T19:03:40;25.00;96.70
45115;DHT22;30877;43.706;10.780;2022-08-19T19:06:13;25.00;96.70
45115;DHT22;30877;43.706;10.780;2022-08-19T19:08:42;24.90;96.70
45115;DHT22;30877;43.706;10.780;2022-08-19T19:11:10;24.80;96.70
45115;DHT22;30877;43.706;10.780;2022-08-19T19:13:40;25.00;96.70
45115;DHT22;30877;43.706;10.780;2022-08-19T19:16:18;24.90;96.70
45115;DHT22;30877;43.706;10.780;2022-08-19T19:18:51;24.70;96.70
45115;DHT22;30877;43.706;10.780;2022-08-19T19:21:19;24.60;96.70
45115;DHT22;30877;43.706;10.780;2022-08-19T19:23:50;24.60;96.70
45115;DHT22;30877;43.706;10.780;2022-08-19T19:26:19;24.50;96.70
45115;DHT22;30877;43.706;10.780;2022-08-19T19:28:49;24.50;96.70
45115;DHT22;30877;43.706;10.780;2022-08-19T19:31:20;24.50;96.70
45115;DHT22;30877;43.706;10.780;2022-08-19T19:33:49;24.60;96.70
45115;DHT22;30877;43.706;10.780;2022-08-19T19:36:18;24.70;96.70
45115;DHT22;30877;43.706;10.780;2022-08-19T19:38:46;24.90;96.70
45115;DHT22;30877;43.706;10.780;2022-08-19T19:41:17;24.90;96.70
45115;DHT22;30877;43.706;10.780;2022-08-19T19:43:46;24.80;96.70
45115;DHT22;30877;43.706;10.780;2022-08-19T19:46:37;24.70;96.70
45115;DHT22;30877;43.706;10.780;2022-08-19T19:49:05;24.60;96.70
45115;DHT22;30877;43.706;10.780;2022-08-19T19:51:34;24.70;96.70
45115;DHT22;30877;43.706;10.780;2022-08-19T19:54:06;24.60;96.70
45115;DHT22;30877;43.706;10.780;2022-08-19T19:56:34;24.60;96.70
45115;DHT22;30877;43.706;10.780;2022-08-19T19:59:02;24.70;96.70
45115;DHT22;30877;43.706;10.780;2022-08-19T20:01:31;24.80;96.70
45115;DHT22;30877;43.706;10.780;2022-08-19T20:04:01;24.90;96.70
45115;DHT22;30877;43.706;10.780;2022-08-19T20:06:30;24.90;96.70
45115;DHT22;30877;43.706;10.780;2022-08-19T20:08:59;25.00;96.70
45115;DHT22;30877;43.706;10.780;2022-08-19T20:11:47;24.90;96.70
45115;DHT22;30877;43.706;10.780;2022-08-19T20:14:21;24.70;96.70
45115;DHT22;30877;43.706;10.780;2022-08-19T20:16:51;24.60;96.70
45115;DHT22;30877;43.706;10.780;2022-08-19T20:19:25;24.70;96.70
45115;DHT22;30877;43.706;10.780;2022-08-19T20:21:54;24.80;96.70
45115;DHT22;30877;43.706;10.780;2022-08-19T20:24:25;24.90;96.70
45115;DHT22;30877;43.706;10.780;2022-08-19T20:26:56;24.80;96.70
45115;DHT22;30877;43.706;10.780;2022-08-19T20:29:25;24.80;96.70
45115;DHT22;30877;43.706;10.780;2022-08-19T20:32:08;24.80;96.70
45115;DHT22;30877;43.706;10.780;2022-08-19T20:34:38;24.70;96.70
45115;DHT22;30877;43.706;10.780;2022-08-19T20:37:09;24.70;96.70
45115;DHT22;30877;43.706;10.780;2022-08-19T20:39:37;24.70;96.70
45115;DHT22;30877;43.706;10.780;2022-08-19T20:42:06;24.70;96.70
45115;DHT22;30877;43.706;10.780;2022-08-19T20:44:34;24.70;96.70
45115;DHT22;30877;43.706;10.780;2022-08-19T20:47:03;24.70;96.70
45115;DHT22;30877;43.706;10.780;2022-08-19T20:49:31;24.60;96.70
45115;DHT22;30877;43.706;10.780;2022-08-19T20:52:03;24.60;96.70
45115;DHT22;30877;43.706;10.780;2022-08-19T20:54:32;24.50;96.70
45115;DHT22;30877;43.706;10.780;2022-08-19T20:57:00;24.40;96.70
45115;DHT22;30877;43.706;10.780;2022-08-19T20:59:30;24.50;96.70
45115;DHT22;30877;43.706;10.780;2022-08-19T21:01:59;24.50;96.70
45115;DHT22;30877;43.706;10.780;2022-08-19T21:04:27;24.50;96.70
45115;DHT22;30877;43.706;10.780;2022-08-19T21:06:55;24.40;96.70
45115;DHT22;30877;43.706;10.780;2022-08-19T21:09:25;24.30;96.70
45115;DHT22;30877;43.706;10.780;2022-08-19T21:11:53;24.30;96.70
45115;DHT22;30877;43.706;10.780;2022-08-19T21:14:21;24.30;96.70
45115;DHT22;30877;43.706;10.780;2022-08-19T21:16:49;24.40;96.70
45115;DHT22;30877;43.706;10.780;2022-08-19T21:19:17;24.40;96.70
45115;DHT22;30877;43.706;10.780;2022-08-19T21:21:50;24.40;96.70
45115;DHT22;30877;43.706;10.780;2022-08-19T21:24:18;24.40;96.70
45115;DHT22;30877;43.706;10.780;2022-08-19T21:26:48;24.40;96.70
45115;DHT22;30877;43.706;10.780;2022-08-19T21:29:18;24.40;96.70
45115;DHT22;30877;43.706;10.780;2022-08-19T21:31:48;24.40;96.70
45115;DHT22;30877;43.706;10.780;2022-08-19T21:34:17;24.30;96.70
45115;DHT22;30877;43.706;10.780;2022-08-19T21:36:45;24.40;96.70
45115;DHT22;30877;43.706;10.780;2022-08-19T21:39:13;24.40;96.70
45115;DHT22;30877;43.706;10.780;2022-08-19T21:41:41;24.10;96.70
45115;DHT22;30877;43.706;10.780;2022-08-19T21:44:11;24.00;96.70
45115;DHT22;30877;43.706;10.780;2022-08-19T21:46:39;23.90;96.70
45115;DHT22;30877;43.706;10.780;2022-08-19T21:49:08;23.80;96.70
45115;DHT22;30877;43.706;10.780;2022-08-19T21:51:36;23.80;96.70
45115;DHT22;30877;43.706;10.780;2022-08-19T21:54:04;23.80;96.70
45115;DHT22;30877;43.706;10.780;2022-08-19T21:56:33;23.80;96.70
45115;DHT22;30877;43.706;10.780;2022-08-19T21:59:00;23.70;96.70
45115;DHT22;30877;43.706;10.780;2022-08-19T22:01:30;23.70;96.70
45115;DHT22;30877;43.706;10.780;2022-08-19T22:03:58;23.80;96.70
45115;DHT22;30877;43.706;10.780;2022-08-19T22:06:26;23.90;96.70
45115;DHT22;30877;43.706;10.780;2022-08-19T22:08:54;24.00;96.70
45115;DHT22;30877;43.706;10.780;2022-08-19T22:11:22;24.00;96.70
45115;DHT22;30877;43.706;10.780;2022-08-19T22:13:50;24.10;96.70
45115;DHT22;30877;43.706;10.780;2022-08-19T22:16:23;24.10;96.70
45115;DHT22;30877;43.706;10.780;2022-08-19T22:18:53;24.10;96.70
45115;DHT22;30877;43.706;10.780;2022-08-19T22:21:21;24.10;96.70
45115;DHT22;30877;43.706;10.780;2022-08-19T22:24:07;24.10;96.70
45115;DHT22;30877;43.706;10.780;2022-08-19T22:26:36;23.90;96.70
45115;DHT22;30877;43.706;10.780;2022-08-19T22:29:04;23.90;96.70
45115;DHT22;30877;43.706;10.780;2022-08-19T22:31:32;23.90;96.70
45115;DHT22;30877;43.706;10.780;2022-08-19T22:34:04;23.90;96.70
45115;DHT22;30877;43.706;10.780;2022-08-19T22:36:32;23.90;96.70
45115;DHT22;30877;43.706;10.780;2022-08-19T22:39:00;23.80;96.70
45115;DHT22;30877;43.706;10.780;2022-08-19T22:41:28;23.90;96.70
45115;DHT22;30877;43.706;10.780;2022-08-19T22:43:56;23.80;96.70
45115;DHT22;30877;43.706;10.780;2022-08-19T22:46:24;23.80;96.70
45115;DHT22;30877;43.706;10.780;2022-08-19T22:48:51;23.80;96.70
45115;DHT22;30877;43.706;10.780;2022-08-19T22:51:29;23.70;96.70
45115;DHT22;30877;43.706;10.780;2022-08-19T22:54:16;23.70;96.70
45115;DHT22;30877;43.706;10.780;2022-08-19T22:56:58;23.80;96.70
45115;DHT22;30877;43.706;10.780;2022-08-19T22:59:27;23.80;96.70
45115;DHT22;30877;43.706;10.780;2022-08-19T23:01:55;23.70;96.70
45115;DHT22;30877;43.706;10.780;2022-08-19T23:04:23;23.70;96.70
45115;DHT22;30877;43.706;10.780;2022-08-19T23:06:53;23.70;96.70
45115;DHT22;30877;43.706;10.780;2022-08-19T23:09:22;23.80;96.70
45115;DHT22;30877;43.706;10.780;2022-08-19T23:11:50;23.60;96.70
45115;DHT22;30877;43.706;10.780;2022-08-19T23:14:31;23.50;96.70
45115;DHT22;30877;43.706;10.780;2022-08-19T23:16:59;23.60;96.70
45115;DHT22;30877;43.706;10.780;2022-08-19T23:19:28;23.60;96.70
45115;DHT22;30877;43.706;10.780;2022-08-19T23:21:58;23.50;96.70
45115;DHT22;30877;43.706;10.780;2022-08-19T23:24:27;23.30;96.70
45115;DHT22;30877;43.706;10.780;2022-08-19T23:26:55;23.10;96.70
45115;DHT22;30877;43.706;10.780;2022-08-19T23:29:42;23.30;96.70
45115;DHT22;30877;43.706;10.780;2022-08-19T23:32:33;23.30;96.70
45115;DHT22;30877;43.706;10.780;2022-08-19T23:35:02;23.20;96.70
45115;DHT22;30877;43.706;10.780;2022-08-19T23:37:32;23.30;96.70
45115;DHT22;30877;43.706;10.780;2022-08-19T23:40:00;23.40;96.70
45115;DHT22;30877;43.706;10.780;2022-08-19T23:42:28;23.50;96.70
45115;DHT22;30877;43.706;10.780;2022-08-19T23:45:00;23.40;96.70
45115;DHT22;30877;43.706;10.780;2022-08-19T23:47:30;23.40;96.70
45115;DHT22;30877;43.706;10.780;2022-08-19T23:49:59;23.40;96.70
45115;DHT22;30877;43.706;10.780;2022-08-19T23:52:40;23.40;96.70
45115;DHT22;30877;43.706;10.780;2022-08-19T23:55:10;23.30;96.70
45115;DHT22;30877;43.706;10.780;2022-08-19T23:57:38;23.30;96.70
